Time;durP1;ratioP1;P1;durP2;ratioP2;P2;SDS_P1;SDS_P2;PMS_P1;PMS_P2;Temp;Humidity;BMP_temperature;BMP_pressure;BME280_temperature;BME280_humidity;BME280_pressure;Samples;Min_cycle;Max_cycle;Signal;HPM_P1;HPM_P2
2022/03/12 00:00:21;;;;;;;11.57;3.63;;;4.40;73.00;;;;;;6338315;22;20076;-89
2022/03/12 00:02:50;;;;;;;9.57;4.00;;;4.30;73.50;;;;;;6308621;22;20030;-90
2022/03/12 00:05:16;;;;;;;7.97;3.77;;;4.40;73.40;;;;;;6309831;22;20013;-89
2022/03/12 00:07:42;;;;;;;9.17;3.70;;;4.30;73.70;;;;;;6310460;22;19999;-89
2022/03/12 00:10:13;;;;;;;9.07;3.60;;;4.30;72.90;;;;;;6310561;22;20028;-89
2022/03/12 00:12:41;;;;;;;9.83;3.80;;;4.30;72.60;;;;;;6310186;22;20007;-89
2022/03/12 00:15:10;;;;;;;16.50;3.30;;;4.30;73.20;;;;;;6309917;22;20065;-89
2022/03/12 00:17:43;;;;;;;9.93;3.23;;;4.30;73.00;;;;;;6310995;22;19995;-89
2022/03/12 00:20:12;;;;;;;8.13;4.03;;;4.10;73.30;;;;;;6314698;22;20003;-89
2022/03/12 00:22:45;;;;;;;9.43;3.53;;;4.30;73.50;;;;;;6357155;22;20025;-90
2022/03/12 00:25:13;;;;;;;8.27;3.43;;;4.30;74.20;;;;;;6319699;22;20025;-89
2022/03/12 00:27:41;;;;;;;10.43;3.77;;;4.20;73.60;;;;;;6311336;22;20050;-89
2022/03/12 00:30:08;;;;;;;10.33;3.43;;;4.20;73.70;;;;;;6310802;22;20425;-89
2022/03/12 00:32:37;;;;;;;8.07;3.20;;;4.20;73.40;;;;;;6309321;22;20003;-89
2022/03/12 00:35:05;;;;;;;7.47;3.43;;;4.30;73.70;;;;;;6310563;22;20007;-90
2022/03/12 00:37:31;;;;;;;7.40;3.30;;;4.30;73.80;;;;;;6313928;22;20007;-89
2022/03/12 00:39:57;;;;;;;12.57;3.77;;;4.40;73.50;;;;;;6313329;22;20006;-89
2022/03/12 00:42:31;;;;;;;8.83;3.60;;;4.30;73.70;;;;;;6313264;22;20005;-89
2022/03/12 00:45:07;;;;;;;10.63;3.90;;;4.30;73.90;;;;;;6340551;22;20021;-89
2022/03/12 00:47:44;;;;;;;6.90;3.13;;;4.40;74.70;;;;;;6312871;22;20063;-90
2022/03/12 00:50:10;;;;;;;10.73;3.93;;;4.30;73.60;;;;;;6312721;22;20003;-89
2022/03/12 00:52:36;;;;;;;9.27;4.03;;;4.30;73.20;;;;;;6312721;22;20003;-89
2022/03/12 00:55:01;;;;;;;7.53;3.20;;;4.40;72.30;;;;;;6312330;22;20041;-89
2022/03/12 00:57:27;;;;;;;8.17;3.23;;;4.30;72.40;;;;;;6313091;22;20052;-89
2022/03/12 00:59:53;;;;;;;9.33;3.50;;;4.20;72.20;;;;;;6314065;22;20002;-89
2022/03/12 01:02:21;;;;;;;9.87;3.47;;;4.20;72.40;;;;;;6313075;22;20054;-89
2022/03/12 01:04:46;;;;;;;8.53;3.10;;;4.20;73.00;;;;;;6312917;22;20009;-90
2022/03/12 01:07:13;;;;;;;7.77;3.30;;;4.10;72.80;;;;;;6313480;22;20081;-88
2022/03/12 01:09:39;;;;;;;7.57;3.50;;;4.20;73.50;;;;;;6314317;22;20492;-89
2022/03/12 01:12:06;;;;;;;7.23;3.70;;;4.00;73.30;;;;;;6312942;22;20010;-89
2022/03/12 01:14:32;;;;;;;9.47;3.67;;;4.00;72.90;;;;;;6312804;22;20340;-89
2022/03/12 01:16:58;;;;;;;6.07;3.47;;;4.10;72.80;;;;;;6312762;22;20011;-89
2022/03/12 01:19:27;;;;;;;10.37;3.17;;;3.90;72.80;;;;;;6313027;22;20443;-89
2022/03/12 01:21:54;;;;;;;8.60;3.63;;;3.90;73.00;;;;;;6310986;22;20003;-89
2022/03/12 01:24:20;;;;;;;6.80;3.47;;;4.00;73.40;;;;;;6312761;22;20007;-90
2022/03/12 01:26:48;;;;;;;7.77;3.33;;;3.80;73.20;;;;;;6312855;22;20070;-89
2022/03/12 01:29:14;;;;;;;7.30;3.77;;;3.80;73.40;;;;;;6312554;22;20002;-88
2022/03/12 01:31:47;;;;;;;7.97;3.37;;;3.80;73.80;;;;;;6313170;22;20705;-89
2022/03/12 01:34:13;;;;;;;9.70;3.10;;;3.70;73.70;;;;;;6310695;22;20010;-89
2022/03/12 01:36:39;;;;;;;9.20;3.43;;;3.80;73.50;;;;;;6312490;22;20428;-88
2022/03/12 01:39:04;;;;;;;6.50;3.13;;;3.70;73.80;;;;;;6311207;22;20003;-89
2022/03/12 01:41:40;;;;;;;8.30;3.07;;;3.60;73.50;;;;;;6310398;22;20033;-89
2022/03/12 01:44:06;;;;;;;10.00;3.67;;;3.60;73.80;;;;;;6311043;22;20007;-89
2022/03/12 01:46:40;;;;;;;8.10;3.30;;;3.70;74.20;;;;;;6310116;22;20003;-88
2022/03/12 01:49:10;;;;;;;9.30;3.57;;;3.70;74.40;;;;;;6311513;22;20053;-88
2022/03/12 01:51:41;;;;;;;8.87;3.30;;;3.50;74.00;;;;;;6310225;22;20701;-89
2022/03/12 01:54:08;;;;;;;5.00;2.00;;;3.50;74.00;;;;;;6312058;22;20006;-89
2022/03/12 01:56:34;;;;;;;6.70;2.97;;;3.50;73.80;;;;;;6310134;22;20031;-89
2022/03/12 01:59:01;;;;;;;6.33;3.03;;;3.50;74.10;;;;;;6310414;22;20091;-91
2022/03/12 02:01:35;;;;;;;8.27;3.37;;;3.40;73.60;;;;;;6312089;22;20037;-89
2022/03/12 02:07:12;;;;;;;8.53;3.37;;;3.40;73.60;;;;;;6310621;22;20006;-89
2022/03/12 02:09:39;;;;;;;7.43;3.50;;;3.40;74.00;;;;;;6311981;22;19995;-88
2022/03/12 02:12:08;;;;;;;8.90;3.33;;;3.40;73.70;;;;;;6311521;22;20007;-89
2022/03/12 02:14:37;;;;;;;9.43;3.10;;;3.30;74.20;;;;;;6311620;22;20026;-89
2022/03/12 02:17:11;;;;;;;8.50;3.13;;;3.40;73.80;;;;;;6310589;22;19999;-90
2022/03/12 02:19:42;;;;;;;8.30;3.17;;;3.50;74.40;;;;;;6310607;22;20010;-89
2022/03/12 02:22:15;;;;;;;7.93;3.17;;;3.40;73.90;;;;;;6310954;22;20018;-89
2022/03/12 02:24:41;;;;;;;6.73;2.70;;;3.50;74.70;;;;;;6310898;22;20038;-89
2022/03/12 02:27:14;;;;;;;7.73;3.07;;;3.40;74.50;;;;;;6310877;22;19999;-89
2022/03/12 02:29:51;;;;;;;6.23;2.87;;;3.40;74.10;;;;;;6310667;22;19999;-89
2022/03/12 02:32:17;;;;;;;6.77;2.83;;;3.40;74.30;;;;;;6311099;22;20006;-89
2022/03/12 02:34:54;;;;;;;7.67;2.63;;;3.40;74.30;;;;;;6337733;22;20030;-89
2022/03/12 02:37:30;;;;;;;12.30;2.90;;;3.40;74.40;;;;;;6311043;22;20006;-88
2022/03/12 02:40:07;;;;;;;6.03;2.60;;;3.40;74.30;;;;;;6309587;22;20030;-90
2022/03/12 02:42:38;;;;;;;7.97;3.17;;;3.40;74.10;;;;;;6311022;22;20006;-89
2022/03/12 02:45:13;;;;;;;8.47;3.03;;;3.40;74.80;;;;;;6310451;22;20003;-89
2022/03/12 02:47:43;;;;;;;7.40;2.90;;;3.40;74.40;;;;;;6310975;22;20061;-89
2022/03/12 02:50:11;;;;;;;9.17;3.20;;;3.30;75.10;;;;;;6310491;22;20009;-89
2022/03/12 02:52:47;;;;;;;7.53;3.13;;;3.40;76.00;;;;;;6308014;22;20040;-89
2022/03/12 02:55:18;;;;;;;5.63;2.73;;;3.50;75.50;;;;;;6310088;22;20392;-90
2022/03/12 02:57:49;;;;;;;7.30;2.90;;;3.40;75.50;;;;;;6310558;22;19999;-89
2022/03/12 03:00:20;;;;;;;7.97;2.57;;;3.40;76.00;;;;;;6309214;22;20371;-89
2022/03/12 03:02:55;;;;;;;7.18;2.95;;;3.30;75.70;;;;;;6310425;22;20028;-89
2022/03/12 03:08:18;;;;;;;8.43;3.10;;;3.50;76.00;;;;;;6341142;22;20002;-89
2022/03/12 03:10:48;;;;;;;7.23;2.73;;;3.50;75.50;;;;;;6308722;22;20092;-89
2022/03/12 03:13:17;;;;;;;17.00;3.10;;;3.60;75.80;;;;;;6310565;22;20003;-90
2022/03/12 03:15:46;;;;;;;9.07;2.83;;;3.50;75.50;;;;;;6309976;22;20003;-90
2022/03/12 03:18:17;;;;;;;10.23;3.83;;;3.60;75.50;;;;;;6310099;22;20009;-89
2022/03/12 03:20:44;;;;;;;5.83;2.90;;;3.40;75.50;;;;;;6310580;22;20101;-90
2022/03/12 03:23:14;;;;;;;9.73;3.30;;;3.40;75.20;;;;;;6311039;22;20057;-90
2022/03/12 03:25:47;;;;;;;10.30;2.77;;;3.40;75.60;;;;;;6310988;22;20022;-89
2022/03/12 03:28:15;;;;;;;6.63;2.80;;;3.30;75.30;;;;;;6338214;22;19999;-89
2022/03/12 03:30:41;;;;;;;5.83;2.37;;;3.30;74.90;;;;;;6310539;22;20007;-90
2022/03/12 03:33:22;;;;;;;7.60;3.30;;;3.30;76.00;;;;;;6310399;22;20059;-89
2022/03/12 03:35:51;;;;;;;8.93;3.33;;;3.30;75.90;;;;;;6309678;22;20072;-91
2022/03/12 03:38:18;;;;;;;8.90;3.17;;;3.40;75.80;;;;;;6309985;22;20007;-89
2022/03/12 03:40:45;;;;;;;10.13;3.00;;;3.30;75.50;;;;;;6308425;22;20266;-89
2022/03/12 03:43:13;;;;;;;7.17;2.50;;;3.30;75.60;;;;;;6336187;22;20073;-89
2022/03/12 03:45:40;;;;;;;10.30;2.83;;;3.50;75.70;;;;;;6337919;22;19998;-89
2022/03/12 03:48:18;;;;;;;8.00;2.97;;;3.30;76.00;;;;;;6335682;22;20006;-91
2022/03/12 03:50:46;;;;;;;7.70;2.80;;;3.50;76.50;;;;;;6307885;22;19998;-89
2022/03/12 03:53:14;;;;;;;7.30;2.97;;;3.30;75.40;;;;;;6336272;22;20007;-90
2022/03/12 03:55:40;;;;;;;7.47;2.50;;;3.30;75.60;;;;;;6309867;22;20006;-90
2022/03/12 03:58:06;;;;;;;6.90;2.70;;;3.30;75.20;;;;;;6309055;22;20014;-90
2022/03/12 04:00:51;;;;;;;8.73;3.17;;;3.30;75.60;;;;;;6310121;22;20007;-89
2022/03/12 04:03:20;;;;;;;7.63;3.10;;;3.30;76.30;;;;;;6310050;22;20060;-90
2022/03/12 04:05:49;;;;;;;7.43;2.73;;;3.40;76.20;;;;;;6309739;22;20371;-89
2022/03/12 04:08:15;;;;;;;7.87;3.30;;;3.30;75.50;;;;;;6309967;22;20125;-89
2022/03/12 04:10:44;;;;;;;8.90;2.60;;;3.30;75.80;;;;;;6309522;22;20005;-88
2022/03/12 04:13:12;;;;;;;6.00;2.53;;;3.30;75.70;;;;;;6309279;22;20034;-89
2022/03/12 04:15:39;;;;;;;7.50;3.10;;;3.20;76.00;;;;;;6310228;22;20007;-89
2022/03/12 04:18:08;;;;;;;7.70;3.10;;;3.30;76.10;;;;;;6309335;22;20092;-89
2022/03/12 04:20:39;;;;;;;8.83;2.60;;;3.20;76.00;;;;;;6309847;22;20006;-90
2022/03/12 04:23:06;;;;;;;8.63;2.93;;;3.20;75.70;;;;;;6309733;22;20081;-91
2022/03/12 04:25:32;;;;;;;5.30;2.37;;;3.20;76.30;;;;;;6309017;22;20003;-89
2022/03/12 04:27:59;;;;;;;7.07;2.40;;;3.20;75.70;;;;;;6308547;22;20086;-89
2022/03/12 04:30:26;;;;;;;10.13;2.77;;;3.20;75.60;;;;;;6309531;22;19999;-88
2022/03/12 04:32:53;;;;;;;6.53;2.83;;;3.10;75.20;;;;;;6337051;22;20069;-88
2022/03/12 04:35:19;;;;;;;6.43;2.50;;;3.10;74.70;;;;;;6309458;22;20006;-88
2022/03/12 04:37:45;;;;;;;5.93;2.37;;;3.00;75.20;;;;;;6312241;22;20003;-88
2022/03/12 04:40:18;;;;;;;13.90;2.57;;;3.00;75.40;;;;;;6328134;22;19995;-91
2022/03/12 04:42:44;;;;;;;5.23;2.63;;;3.00;75.20;;;;;;6322455;22;20052;-88
2022/03/12 04:45:18;;;;;;;8.27;2.93;;;3.10;75.50;;;;;;6346364;22;20027;-88
2022/03/12 04:47:49;;;;;;;7.67;2.70;;;3.00;75.00;;;;;;6313165;22;20034;-89
2022/03/12 04:50:16;;;;;;;7.90;3.23;;;3.00;75.40;;;;;;6344465;22;19998;-91
2022/03/12 04:52:48;;;;;;;8.33;3.00;;;3.20;75.50;;;;;;6312105;22;19999;-89
2022/03/12 04:55:15;;;;;;;6.00;2.73;;;2.90;75.70;;;;;;6308589;22;20463;-89
2022/03/12 04:57:41;;;;;;;8.37;3.20;;;3.10;75.50;;;;;;6308988;22;20003;-89
2022/03/12 05:00:17;;;;;;;7.40;3.00;;;3.00;76.30;;;;;;6336360;22;20028;-89
2022/03/12 05:02:44;;;;;;;7.57;2.60;;;3.00;76.40;;;;;;6334649;22;20371;-89
2022/03/12 05:05:14;;;;;;;8.63;3.00;;;2.90;75.80;;;;;;6307804;22;20003;-89
2022/03/12 05:07:44;;;;;;;7.87;3.10;;;3.00;76.00;;;;;;6330213;22;20049;-87
2022/03/12 05:10:16;;;;;;;6.70;2.63;;;3.00;76.10;;;;;;6306044;22;20096;-87
2022/03/12 05:12:43;;;;;;;4.97;2.10;;;2.90;76.10;;;;;;6305018;22;19999;-87
2022/03/12 05:15:11;;;;;;;7.30;2.70;;;2.90;74.90;;;;;;6304551;22;20007;-87
2022/03/12 05:17:47;;;;;;;5.73;2.67;;;2.80;75.40;;;;;;6337508;22;20057;-86
2022/03/12 05:20:21;;;;;;;6.37;2.97;;;2.90;75.70;;;;;;6309199;22;20003;-87
2022/03/12 05:22:48;;;;;;;7.20;3.03;;;2.80;76.20;;;;;;6308731;22;20387;-87
2022/03/12 05:25:15;;;;;;;5.87;2.73;;;2.60;76.40;;;;;;6308992;22;20336;-87
2022/03/12 05:27:41;;;;;;;6.53;2.70;;;2.60;77.00;;;;;;6305006;22;20108;-86
2022/03/12 05:30:07;;;;;;;7.80;2.93;;;2.60;77.30;;;;;;6334574;22;20387;-86
2022/03/12 05:32:33;;;;;;;6.70;2.60;;;2.60;77.60;;;;;;6308471;22;20002;-87
2022/03/12 05:34:59;;;;;;;5.33;2.87;;;2.60;76.60;;;;;;6304839;22;20003;-87
2022/03/12 05:37:24;;;;;;;8.17;2.57;;;2.60;77.50;;;;;;6333541;22;20320;-85
2022/03/12 05:39:51;;;;;;;6.70;2.63;;;2.70;76.80;;;;;;6307024;22;20409;-87
2022/03/12 05:42:18;;;;;;;7.17;3.07;;;2.70;76.50;;;;;;6307625;22;20030;-85
2022/03/12 05:44:44;;;;;;;8.43;3.13;;;2.60;76.70;;;;;;6332438;22;20003;-85
2022/03/12 05:47:10;;;;;;;5.00;2.20;;;2.60;77.20;;;;;;6306571;22;20393;-87
2022/03/12 05:49:36;;;;;;;5.87;2.13;;;2.70;77.70;;;;;;6308079;22;20335;-87
2022/03/12 05:52:02;;;;;;;7.20;2.60;;;2.70;77.00;;;;;;6307302;22;20087;-88
2022/03/12 05:54:28;;;;;;;11.23;3.00;;;2.80;77.60;;;;;;6306544;22;20087;-87
2022/03/12 05:56:55;;;;;;;6.73;2.60;;;2.80;77.00;;;;;;6308030;22;20003;-87
2022/03/12 05:59:21;;;;;;;6.27;3.07;;;2.80;76.60;;;;;;6333450;22;20391;-87
2022/03/12 06:01:46;;;;;;;8.50;3.03;;;2.80;76.30;;;;;;6307466;22;20007;-87
2022/03/12 06:04:15;;;;;;;7.07;3.00;;;2.80;76.70;;;;;;6305729;22;20011;-87
2022/03/12 06:06:45;;;;;;;9.03;2.80;;;2.90;77.00;;;;;;6306154;22;19999;-87
2022/03/12 06:09:11;;;;;;;6.10;2.63;;;2.90;76.60;;;;;;6307271;22;19999;-86
2022/03/12 06:11:37;;;;;;;6.70;2.97;;;2.90;75.80;;;;;;6335731;22;20452;-87
2022/03/12 06:14:03;;;;;;;7.50;2.80;;;2.90;76.60;;;;;;6334417;22;20003;-87
2022/03/12 06:16:29;;;;;;;7.10;2.63;;;3.00;76.10;;;;;;6307271;22;20060;-87
2022/03/12 06:18:55;;;;;;;6.37;2.80;;;3.00;75.50;;;;;;6335602;22;19999;-87
2022/03/12 06:21:21;;;;;;;9.43;3.10;;;2.90;76.30;;;;;;6308345;22;20003;-87
2022/03/12 06:23:47;;;;;;;9.67;2.70;;;2.90;74.90;;;;;;6333885;22;20014;-87
2022/03/12 06:26:25;;;;;;;6.00;2.40;;;2.90;75.70;;;;;;6335638;22;19999;-88
2022/03/12 06:28:51;;;;;;;8.10;2.67;;;3.00;75.80;;;;;;6307248;22;20425;-87
2022/03/12 06:31:18;;;;;;;7.00;3.30;;;3.00;75.70;;;;;;6304354;22;20093;-85
2022/03/12 06:33:45;;;;;;;6.93;2.47;;;3.00;75.80;;;;;;6331865;22;20059;-88
2022/03/12 06:36:21;;;;;;;7.87;2.50;;;3.10;75.80;;;;;;6308294;22;20011;-87
2022/03/12 06:38:50;;;;;;;5.23;2.27;;;3.20;76.00;;;;;;6308542;22;20003;-88
2022/03/12 06:41:20;;;;;;;5.73;2.40;;;3.30;76.00;;;;;;6307243;22;20418;-87
2022/03/12 06:43:46;;;;;;;7.03;2.83;;;3.40;75.30;;;;;;6333688;22;20111;-87
2022/03/12 06:46:15;;;;;;;7.00;2.80;;;3.40;75.10;;;;;;6306024;22;20010;-87
2022/03/12 06:48:42;;;;;;;9.40;2.97;;;3.50;75.10;;;;;;6306795;22;20103;-86
2022/03/12 06:51:16;;;;;;;9.43;2.93;;;3.50;74.50;;;;;;6302988;22;19999;-88
2022/03/12 06:53:43;;;;;;;6.20;2.50;;;3.60;75.10;;;;;;6305898;22;20011;-86
2022/03/12 06:56:09;;;;;;;8.23;3.17;;;3.60;74.60;;;;;;6306789;22;20348;-87
2022/03/12 06:58:36;;;;;;;7.30;3.00;;;3.50;74.40;;;;;;6334292;22;20013;-87
2022/03/12 07:01:02;;;;;;;5.43;2.80;;;3.50;74.80;;;;;;6305494;22;20030;-87
2022/03/12 07:03:28;;;;;;;6.53;2.97;;;3.40;74.70;;;;;;6333119;22;20010;-87
2022/03/12 07:05:53;;;;;;;5.20;2.20;;;3.20;75.10;;;;;;6334533;22;19999;-86
2022/03/12 07:08:20;;;;;;;6.93;2.63;;;3.00;75.70;;;;;;6304943;22;20006;-87
2022/03/12 07:10:49;;;;;;;8.57;3.03;;;2.90;76.20;;;;;;6305699;22;20049;-87
2022/03/12 07:13:15;;;;;;;9.27;3.10;;;3.00;76.10;;;;;;6279641;22;20014;-87
2022/03/12 07:15:41;;;;;;;6.70;2.50;;;3.20;76.10;;;;;;6333479;22;20060;-87
2022/03/12 07:18:06;;;;;;;6.63;2.67;;;3.30;75.30;;;;;;6304992;22;20002;-86
2022/03/12 07:20:32;;;;;;;5.90;2.60;;;3.40;75.00;;;;;;6305555;22;20052;-85
2022/03/12 07:22:58;;;;;;;7.60;3.07;;;3.50;74.70;;;;;;6333483;22;20006;-85
2022/03/12 07:25:27;;;;;;;6.93;2.60;;;3.70;74.70;;;;;;6305844;22;20010;-87
2022/03/12 07:27:54;;;;;;;7.93;3.40;;;3.80;74.00;;;;;;6308253;22;19995;-90
2022/03/12 07:30:21;;;;;;;8.83;3.50;;;4.00;74.10;;;;;;6307305;22;20003;-87
2022/03/12 07:32:48;;;;;;;8.77;3.23;;;4.10;73.40;;;;;;6305598;22;20106;-87
2022/03/12 07:35:16;;;;;;;9.27;4.03;;;4.30;73.60;;;;;;6333435;22;20006;-84
2022/03/12 07:37:43;;;;;;;5.93;2.57;;;4.40;73.10;;;;;;6306575;22;20193;-84
2022/03/12 07:40:10;;;;;;;6.73;2.80;;;4.50;73.20;;;;;;6306588;22;20042;-86
2022/03/12 07:42:39;;;;;;;6.67;2.70;;;4.50;73.70;;;;;;6334775;22;20003;-88
2022/03/12 07:45:07;;;;;;;8.97;3.37;;;4.60;73.20;;;;;;6306164;22;20097;-85
2022/03/12 07:47:34;;;;;;;9.83;3.10;;;4.70;73.30;;;;;;6332983;22;20014;-85
2022/03/12 07:50:00;;;;;;;8.70;3.13;;;4.80;72.80;;;;;;6307040;22;20317;-85
2022/03/12 07:52:26;;;;;;;11.23;3.17;;;4.80;72.40;;;;;;6306171;22;20022;-87
2022/03/12 07:54:53;;;;;;;7.00;3.10;;;4.80;72.10;;;;;;6304958;22;20009;-86
2022/03/12 07:57:19;;;;;;;7.00;3.10;;;4.90;72.40;;;;;;6304635;22;20006;-87
2022/03/12 07:59:46;;;;;;;6.30;3.03;;;4.90;72.50;;;;;;6333087;22;20060;-84
2022/03/12 08:02:12;;;;;;;8.43;3.43;;;5.10;72.80;;;;;;6306626;22;20533;-84
2022/03/12 08:04:38;;;;;;;6.63;3.17;;;5.10;73.00;;;;;;6307152;22;20089;-84
2022/03/12 08:07:04;;;;;;;6.83;3.13;;;5.20;72.30;;;;;;6307371;22;20341;-84
2022/03/12 08:09:31;;;;;;;8.53;3.20;;;5.30;71.40;;;;;;6335234;22;19991;-85
2022/03/12 08:11:58;;;;;;;6.27;3.00;;;5.40;71.80;;;;;;6307607;22;20003;-84
2022/03/12 08:14:24;;;;;;;7.43;3.10;;;5.40;71.80;;;;;;6305111;22;20003;-85
2022/03/12 08:16:52;;;;;;;7.67;3.03;;;5.50;71.40;;;;;;6307032;22;20060;-85
2022/03/12 08:19:19;;;;;;;7.15;3.15;;;5.50;72.20;;;;;;6307341;22;20090;-85
2022/03/12 08:21:46;;;;;;;7.82;3.08;;;5.60;71.10;;;;;;6305618;22;20003;-87
2022/03/12 08:24:15;;;;;;;10.52;3.88;;;5.70;71.00;;;;;;6306340;22;20011;-85
2022/03/12 08:26:42;;;;;;;7.00;3.00;;;5.90;71.70;;;;;;6302605;22;20003;-86
2022/03/12 08:29:10;;;;;;;7.85;3.85;;;6.00;71.20;;;;;;6307266;22;20013;-84
2022/03/12 08:31:36;;;;;;;7.30;3.13;;;6.10;70.60;;;;;;6307169;22;20444;-85
2022/03/12 08:34:02;;;;;;;6.55;2.80;;;6.20;70.70;;;;;;6305104;22;20017;-84
2022/03/12 08:36:27;;;;;;;7.75;3.35;;;6.30;70.70;;;;;;6307156;22;20007;-83
2022/03/12 08:38:53;;;;;;;7.35;3.42;;;6.30;71.00;;;;;;6307350;22;20003;-85
2022/03/12 08:41:21;;;;;;;7.72;3.53;;;6.50;71.10;;;;;;6307153;22;20052;-84
2022/03/12 08:43:48;;;;;;;12.60;3.42;;;6.80;71.20;;;;;;6333793;22;20061;-85
2022/03/12 08:46:14;;;;;;;8.30;3.60;;;6.70;70.00;;;;;;6335272;22;19999;-83
2022/03/12 08:48:42;;;;;;;10.27;4.10;;;6.90;70.80;;;;;;6335122;22;20418;-84
2022/03/12 08:51:08;;;;;;;7.63;3.55;;;7.00;69.60;;;;;;6334771;22;20037;-84
2022/03/12 08:53:34;;;;;;;8.00;3.58;;;7.10;69.50;;;;;;6334306;22;20003;-84
2022/03/12 08:56:02;;;;;;;7.53;3.83;;;7.20;69.50;;;;;;6336821;22;20002;-84
2022/03/12 08:58:29;;;;;;;7.72;3.80;;;7.40;69.40;;;;;;6309759;22;20003;-85
2022/03/12 09:00:56;;;;;;;8.10;3.33;;;7.50;69.20;;;;;;6308977;22;20010;-84
2022/03/12 09:03:22;;;;;;;9.00;3.15;;;7.40;68.90;;;;;;6308763;22;20002;-85
2022/03/12 09:05:49;;;;;;;7.22;3.20;;;7.50;69.30;;;;;;6309147;22;20063;-85
2022/03/12 09:08:15;;;;;;;8.07;3.83;;;7.40;69.40;;;;;;6336790;22;19999;-84
2022/03/12 09:10:42;;;;;;;8.70;3.78;;;7.60;69.40;;;;;;6336329;22;19995;-84
2022/03/12 09:13:08;;;;;;;8.13;3.67;;;7.70;69.50;;;;;;6334711;22;19998;-85
2022/03/12 09:15:34;;;;;;;9.38;4.15;;;7.70;68.00;;;;;;6336461;22;20052;-86
2022/03/12 09:18:03;;;;;;;9.32;3.35;;;7.70;68.20;;;;;;6308546;22;20153;-86
2022/03/12 09:20:29;;;;;;;7.72;3.70;;;7.90;68.00;;;;;;6309831;22;20003;-84
2022/03/12 09:22:55;;;;;;;7.80;3.60;;;8.10;68.20;;;;;;6308870;22;20003;-85
2022/03/12 09:25:21;;;;;;;8.32;4.13;;;8.30;68.50;;;;;;6334840;22;20486;-82
2022/03/12 09:27:46;;;;;;;7.07;3.55;;;8.40;67.00;;;;;;6306472;22;20059;-85
2022/03/12 09:30:15;;;;;;;7.50;3.67;;;8.50;67.30;;;;;;6337710;22;20018;-84
2022/03/12 09:32:41;;;;;;;8.48;3.70;;;8.60;66.80;;;;;;6310342;22;20010;-83
2022/03/12 09:35:08;;;;;;;8.27;3.65;;;8.70;66.80;;;;;;6336959;22;20003;-82
2022/03/12 09:37:38;;;;;;;8.15;3.78;;;8.70;66.80;;;;;;6338163;22;19999;-84
2022/03/12 09:40:05;;;;;;;7.90;3.60;;;8.80;67.10;;;;;;6309958;22;20006;-83
2022/03/12 09:42:31;;;;;;;9.30;4.63;;;8.90;67.30;;;;;;6336799;22;20052;-83
2022/03/12 09:45:02;;;;;;;7.88;3.83;;;9.10;66.70;;;;;;6309013;22;20007;-84
2022/03/12 09:47:27;;;;;;;8.55;4.20;;;9.20;66.50;;;;;;6310224;22;20041;-84
2022/03/12 09:49:53;;;;;;;8.05;4.10;;;9.40;64.90;;;;;;6337293;22;19998;-84
2022/03/12 09:52:19;;;;;;;8.20;4.40;;;9.30;65.20;;;;;;6336945;22;20125;-85
2022/03/12 09:54:44;;;;;;;10.35;4.18;;;9.40;66.10;;;;;;6328691;22;20349;-85
2022/03/12 09:57:10;;;;;;;8.07;4.13;;;9.50;66.20;;;;;;6307620;22;20095;-84
2022/03/12 09:59:36;;;;;;;6.85;3.72;;;9.60;65.50;;;;;;6308497;22;20010;-84
2022/03/12 10:02:02;;;;;;;11.07;4.18;;;9.70;66.20;;;;;;6308469;22;20042;-85
2022/03/12 10:04:31;;;;;;;9.90;4.22;;;9.80;66.20;;;;;;6308280;22;20006;-84
2022/03/12 10:06:59;;;;;;;9.18;4.57;;;10.00;66.30;;;;;;6308426;22;20018;-84
2022/03/12 10:09:25;;;;;;;9.95;4.65;;;10.20;66.20;;;;;;6307875;22;19995;-85
2022/03/12 10:11:53;;;;;;;8.77;4.30;;;10.30;65.00;;;;;;6336735;22;20083;-85
2022/03/12 10:14:20;;;;;;;11.93;4.85;;;10.50;65.00;;;;;;6307996;22;20003;-85
2022/03/12 10:16:46;;;;;;;9.85;4.93;;;10.60;64.30;;;;;;6308689;22;20456;-85
2022/03/12 10:19:12;;;;;;;11.40;4.40;;;10.50;64.60;;;;;;6309843;22;20002;-85
2022/03/12 10:21:42;;;;;;;9.15;4.55;;;10.40;64.40;;;;;;6309736;22;20483;-85
2022/03/12 10:24:15;;;;;;;10.00;4.50;;;10.50;65.10;;;;;;6309786;22;19995;-85
2022/03/12 10:26:42;;;;;;;9.75;4.75;;;10.60;65.30;;;;;;6311835;22;20051;-84
2022/03/12 10:29:09;;;;;;;11.45;5.03;;;10.50;64.80;;;;;;6314393;22;20002;-85
2022/03/12 10:31:45;;;;;;;9.68;5.10;;;10.60;66.00;;;;;;6315743;22;20003;-85
2022/03/12 10:34:19;;;;;;;10.85;4.93;;;10.60;65.40;;;;;;6309980;22;20003;-85
2022/03/12 10:36:46;;;;;;;9.98;4.68;;;10.70;65.90;;;;;;6309833;22;20546;-85
2022/03/12 10:39:12;;;;;;;11.35;4.78;;;10.70;65.70;;;;;;6309024;22;20010;-85
2022/03/12 10:41:39;;;;;;;8.20;4.18;;;10.70;65.50;;;;;;6336370;22;20430;-85
2022/03/12 10:44:06;;;;;;;9.13;5.30;;;10.90;64.90;;;;;;6308223;22;20383;-85
2022/03/12 10:46:34;;;;;;;9.77;4.72;;;11.00;65.70;;;;;;6307974;22;20064;-85
2022/03/12 10:49:03;;;;;;;9.50;4.57;;;11.20;65.40;;;;;;6308455;22;20100;-85
2022/03/12 10:51:36;;;;;;;9.32;4.82;;;11.20;65.20;;;;;;6309016;22;20604;-85
2022/03/12 10:54:18;;;;;;;10.90;4.70;;;11.40;64.80;;;;;;6307418;22;20382;-85
2022/03/12 10:56:51;;;;;;;11.98;4.80;;;11.50;65.30;;;;;;6335628;22;20002;-84
2022/03/12 10:59:20;;;;;;;11.70;4.82;;;11.80;65.60;;;;;;6307704;22;20009;-85
2022/03/12 11:01:54;;;;;;;8.55;4.32;;;11.90;65.40;;;;;;6308198;22;20089;-85
2022/03/12 11:04:27;;;;;;;7.70;3.97;;;11.90;64.60;;;;;;6307391;22;20042;-85
2022/03/12 11:06:55;;;;;;;9.40;4.57;;;12.00;64.80;;;;;;6307357;22;20005;-86
2022/03/12 11:09:52;;;;;;;15.32;4.47;;;12.00;64.80;;;;;;6307720;22;20029;-86
2022/03/12 11:12:30;;;;;;;11.90;4.18;;;12.10;64.40;;;;;;6288458;22;20036;-86
2022/03/12 11:15:15;;;;;;;10.35;4.38;;;12.10;64.40;;;;;;6306333;22;20011;-88
2022/03/12 11:17:45;;;;;;;7.65;4.07;;;12.20;64.90;;;;;;6306464;22;20456;-87
2022/03/12 11:20:21;;;;;;;7.03;4.32;;;12.40;65.30;;;;;;6307600;22;20072;-87
2022/03/12 11:23:27;;;;;;;10.13;4.55;;;12.40;65.30;;;;;;6308172;22;20009;-87
2022/03/12 11:25:58;;;;;;;10.52;5.05;;;12.60;65.90;;;;;;6290980;22;20040;-88
2022/03/12 11:28:25;;;;;;;7.70;4.30;;;12.70;65.50;;;;;;6333699;22;20009;-87
2022/03/12 11:30:51;;;;;;;9.18;4.07;;;12.70;65.30;;;;;;6308596;22;20436;-87
2022/03/12 11:36:09;;;;;;;8.02;4.38;;;12.80;64.30;;;;;;6309111;22;20064;-88
2022/03/12 11:38:39;;;;;;;8.32;4.40;;;12.90;66.90;;;;;;6307688;22;20003;-89
2022/03/12 11:41:21;;;;;;;6.60;3.92;;;13.00;65.20;;;;;;6307361;22;20006;-88
2022/03/12 11:43:50;;;;;;;7.22;3.78;;;13.20;66.30;;;;;;6307013;22;20007;-88
2022/03/12 11:46:29;;;;;;;9.13;4.10;;;13.20;66.20;;;;;;6307448;22;20006;-88
2022/03/12 11:49:04;;;;;;;8.65;3.92;;;13.10;68.60;;;;;;6335656;22;20455;-88
2022/03/12 11:55:05;;;;;;;7.00;3.78;;;13.30;68.70;;;;;;6249608;22;20367;-88
2022/03/12 11:57:38;;;;;;;8.27;3.83;;;13.50;69.10;;;;;;6306089;22;19998;-88
2022/03/12 12:00:33;;;;;;;8.20;3.42;;;13.40;68.80;;;;;;6304050;22;20026;-88
2022/03/12 12:02:59;;;;;;;5.72;3.17;;;13.50;69.90;;;;;;6306592;22;20017;-89
2022/03/12 12:45:55;;;;;;;7.72;2.63;;;14.80;67.80;;;;;;6374015;22;20020;-85
2022/03/12 12:56:52;;;;;;;10.90;3.35;;;14.90;66.30;;;;;;6377898;22;20018;-86
2022/03/12 12:59:53;;;;;;;6.40;2.95;;;14.80;65.80;;;;;;6338931;22;20377;-85
2022/03/12 13:02:57;;;;;;;6.22;3.25;;;14.70;66.80;;;;;;6313460;22;20437;-85
2022/03/12 13:06:01;;;;;;;6.60;3.53;;;14.60;67.30;;;;;;6310080;22;20040;-86
2022/03/12 13:09:10;;;;;;;5.82;3.05;;;14.60;66.60;;;;;;6347125;22;19999;-87
2022/03/12 13:16:03;;;;;;;6.07;3.45;;;14.70;66.90;;;;;;6346049;22;20003;-88
2022/03/12 13:41:55;;;;;;;6.30;3.22;;;15.60;65.10;;;;;;6368642;22;20018;-84
2022/03/12 13:44:48;;;;;;;7.05;3.30;;;15.90;65.40;;;;;;6310379;22;20007;-84
2022/03/12 13:47:35;;;;;;;;;;;;;;;;;;;;;
2022/03/12 13:50:42;;;;;;;6.95;3.45;;;15.90;65.10;;;;;;6337092;22;19977;-84
2022/03/12 13:59:52;;;;;;;;;;;;;;;;;;;;;
2022/03/12 14:27:12;;;;;;;;;;;;;;;;;;;;;
2022/03/12 14:30:26;;;;;;;7.20;3.08;;;16.60;62.80;;;;;;6346907;22;20026;-90
2022/03/12 16:23:12;;;;;;;6.50;3.00;;;12.90;68.50;;;;;;6277677;22;20016;-85
2022/03/12 17:37:30;;;;;;;;;;;;;;;;;;;;;
2022/03/12 17:40:45;;;;;;;;;;;;;;;;;;;;;
2022/03/12 17:43:17;;;;;;;7.95;4.05;;;10.90;72.10;;;;;;6345391;22;20033;-88
2022/03/12 17:45:45;;;;;;;7.18;4.03;;;10.80;72.30;;;;;;6321590;22;20025;-85
2022/03/12 17:48:14;;;;;;;7.05;3.25;;;10.70;72.30;;;;;;6322654;22;20082;-86
2022/03/12 17:53:45;;;;;;;7.75;3.90;;;10.60;72.50;;;;;;6320584;22;20018;-84
2022/03/12 17:56:10;;;;;;;7.13;3.60;;;10.50;72.80;;;;;;6368418;22;19998;-83
2022/03/12 17:58:36;;;;;;;8.05;3.50;;;10.50;72.90;;;;;;6369812;22;20440;-83
2022/03/12 18:01:02;;;;;;;8.15;3.13;;;10.50;73.00;;;;;;6369430;22;19994;-84
2022/03/12 18:03:27;;;;;;;9.38;4.15;;;10.40;73.10;;;;;;6336704;22;20003;-83
2022/03/12 18:05:53;;;;;;;7.82;3.63;;;10.40;73.50;;;;;;6314831;22;20006;-82
2022/03/12 18:08:21;;;;;;;7.53;3.55;;;10.40;73.60;;;;;;6312601;22;20330;-84
2022/03/12 18:10:47;;;;;;;8.25;4.25;;;10.30;73.30;;;;;;6338776;22;20061;-83
2022/03/12 18:13:20;;;;;;;7.70;3.78;;;10.20;73.20;;;;;;6312258;22;20007;-83
2022/03/12 18:15:53;;;;;;;11.13;3.90;;;10.20;73.40;;;;;;6342609;22;19991;-83
2022/03/12 18:18:20;;;;;;;9.38;3.80;;;10.20;73.70;;;;;;6314057;22;20003;-83